Terminal Aerodrome Forecast
Issued by NWS North Platte, NE

Home | Current Version | Previous Version | Text Only | Print | Product List | Glossary Off
Versions: 1 2 3 4 5 6 7 8 9 10 11 12 13 14

000
FTUS43 KLBF 230500
TAFVTN
TAF
KVTN 230528Z 2306/2406 14012KT P6SM BKN150
     FM230700 15018G25KT P6SM SCT070 BKN120
      TEMPO 2307/2310 -SHRA BKN070 OVC120
     FM231400 19018G25KT P6SM BKN120
     FM231700 23017G25KT P6SM BKN100
     FM231900 33015G25KT P6SM BKN100
     FM240200 34011KT P6SM BKN100=

USA.gov is the U.S. government's official web portal to all federal, state and local government web resources and services.